Time;durP1;ratioP1;P1;durP2;ratioP2;P2;SDS_P1;SDS_P2;PMS_P1;PMS_P2;Temp;Humidity;BMP_temperature;BMP_pressure;BME280_temperature;BME280_humidity;BME280_pressure;Samples;Min_cycle;Max_cycle;Signal;HPM_P1;HPM_P2
2022/01/19 00:00:18;;;;;;;11.30;4.97;;;;;;;-0.56;100.00;102838.13;2571209;30;138425;-41
2022/01/19 00:02:47;;;;;;;10.48;4.40;;;;;;;-0.57;100.00;102834.56;2571056;30;137392;-38
2022/01/19 00:05:15;;;;;;;;;;;;;;;-0.62;100.00;102828.59;2569960;30;137491;-38
2022/01/19 00:07:43;;;;;;;11.57;4.63;;;;;;;-0.65;100.00;102835.03;2572313;30;138161;-38
2022/01/19 00:10:16;;;;;;;10.75;4.47;;;;;;;-0.64;100.00;102825.16;2570356;30;137390;-38
2022/01/19 00:12:45;;;;;;;8.98;4.75;;;;;;;-0.67;100.00;102830.69;2569041;30;136889;-38
2022/01/19 00:15:13;;;;;;;9.30;4.95;;;;;;;-0.75;100.00;102834.69;2570724;30;138296;-41
2022/01/19 00:17:41;;;;;;;10.40;4.72;;;;;;;-0.76;100.00;102832.97;2567661;30;138338;-41
2022/01/19 00:20:09;;;;;;;;;;;;;;;-0.75;100.00;102828.44;2569500;30;138409;-41
2022/01/19 00:22:37;;;;;;;9.82;4.93;;;;;;;-0.72;100.00;102814.88;2571835;30;136800;-40
2022/01/19 00:25:08;;;;;;;8.80;4.25;;;;;;;-0.73;100.00;102805.09;2569205;30;139321;-38
2022/01/19 00:27:36;;;;;;;11.25;4.78;;;;;;;-0.74;100.00;102776.56;2568583;30;137755;-38
2022/01/19 00:30:05;;;;;;;;;;;;;;;-0.84;100.00;102749.44;2567589;30;138844;-38
2022/01/19 00:32:33;;;;;;;15.10;4.63;;;;;;;-0.71;100.00;102736.16;2571272;30;136934;-38
2022/01/19 00:35:05;;;;;;;9.27;4.63;;;;;;;-0.66;100.00;102725.19;2568661;30;139871;-38
2022/01/19 00:37:33;;;;;;;10.93;5.13;;;;;;;-0.70;100.00;102713.75;2569291;30;137729;-40
2022/01/19 00:40:01;;;;;;;9.13;4.97;;;;;;;-0.72;100.00;102715.66;2570911;30;137736;-41
2022/01/19 00:42:28;;;;;;;;;;;;;;;-0.56;100.00;102712.94;2569208;30;136964;-41
2022/01/19 00:44:56;;;;;;;10.20;4.85;;;;;;;-0.52;100.00;102716.31;2570970;30;138802;-38
2022/01/19 00:47:25;;;;;;;13.07;5.80;;;;;;;-0.57;100.00;102708.53;2570694;30;137516;-38
2022/01/19 00:49:54;;;;;;;8.70;5.22;;;;;;;-0.62;100.00;102719.56;2567646;30;138399;-38
2022/01/19 00:52:22;;;;;;;12.13;5.95;;;;;;;-0.63;100.00;102730.34;2570256;30;137225;-38
2022/01/19 00:54:50;;;;;;;;;;;;;;;-0.53;100.00;102754.81;2569099;30;138276;-38
2022/01/19 00:57:18;;;;;;;10.55;4.82;;;;;;;-0.57;100.00;102766.66;2567880;30;139054;-38
2022/01/19 00:59:46;;;;;;;10.70;5.18;;;;;;;-0.60;100.00;102770.38;2567884;30;138340;-40
2022/01/19 01:02:14;;;;;;;9.70;5.43;;;;;;;-0.70;100.00;102770.06;2567879;30;138508;-40
2022/01/19 01:04:42;;;;;;;10.50;5.43;;;;;;;-0.82;100.00;102763.59;2568035;30;138275;-40
2022/01/19 01:07:10;;;;;;;9.90;4.80;;;;;;;-0.92;100.00;102765.09;2568719;30;137492;-40
2022/01/19 01:09:44;;;;;;;9.25;4.47;;;;;;;-1.06;100.00;102756.06;2568063;30;137767;-40
2022/01/19 01:12:19;;;;;;;10.52;4.43;;;;;;;-1.21;100.00;102759.63;2567888;30;137737;-41
2022/01/19 01:20:21;;;;;;;8.38;4.55;;;;;;;-1.47;100.00;102746.72;2567857;30;138342;-40
2022/01/19 01:22:52;;;;;;;9.10;4.90;;;;;;;-1.41;100.00;102740.16;2568502;30;138873;-40
2022/01/19 01:25:19;;;;;;;;;;;;;;;-1.53;100.00;102727.47;2568831;30;139228;-40
2022/01/19 01:27:47;;;;;;;9.07;4.60;;;;;;;-1.60;100.00;102730.47;2568624;30;137376;-40
2022/01/19 01:30:15;;;;;;;;;;;;;;;-1.63;100.00;102732.50;2566666;30;139817;-41
2022/01/19 01:32:43;;;;;;;8.70;4.38;;;;;;;-1.68;100.00;102721.19;2568663;30;137011;-40
2022/01/19 01:35:13;;;;;;;9.93;4.57;;;;;;;-1.73;100.00;102706.22;2566684;30;139590;-40
2022/01/19 01:37:42;;;;;;;;;;;;;;;-1.73;100.00;102703.53;2568849;30;140268;-40
2022/01/19 01:40:13;;;;;;;8.70;4.60;;;;;;;-1.69;100.00;102709.59;2568738;30;139077;-40
2022/01/19 01:42:46;;;;;;;10.45;4.78;;;;;;;-1.68;100.00;102703.28;2567993;30;138519;-40
2022/01/19 01:45:17;;;;;;;9.30;4.60;;;;;;;-1.71;100.00;102692.75;2566811;30;139277;-40
2022/01/19 01:47:52;;;;;;;9.32;4.68;;;;;;;-1.81;100.00;102688.88;2568435;30;136937;-40
2022/01/19 01:56:10;;;;;;;9.85;4.68;;;;;;;-1.97;100.00;102716.47;2566060;30;139897;-40
2022/01/19 01:58:45;;;;;;;8.82;4.57;;;;;;;-2.00;100.00;102716.63;2566611;30;139186;-40
2022/01/19 02:01:40;;;;;;;7.78;4.25;;;;;;;-2.05;100.00;102716.03;2566892;30;137176;-40
2022/01/19 02:04:12;;;;;;;8.95;4.80;;;;;;;-2.06;100.00;102700.94;2568165;30;139046;-40
2022/01/19 02:09:59;;;;;;;8.13;4.32;;;;;;;-1.96;100.00;102680.72;2566112;30;138643;-40
2022/01/19 02:23:49;;;;;;;9.88;5.30;;;;;;;-0.55;100.00;102652.97;2566329;30;139904;-40
2022/01/19 02:26:25;;;;;;;10.90;5.88;;;;;;;-0.32;100.00;102645.34;2567524;30;139790;-40
2022/01/19 02:29:12;;;;;;;12.40;6.13;;;;;;;-0.13;100.00;102645.06;2568515;30;139146;-40
2022/01/19 02:42:52;;;;;;;15.52;7.88;;;;;;;0.61;100.00;102595.53;2566804;30;138913;-40
2022/01/19 02:50:43;;;;;;;15.27;8.57;;;;;;;1.03;100.00;102587.34;2564471;30;139943;-40
2022/01/19 02:53:11;;;;;;;13.25;8.20;;;;;;;1.05;100.00;102575.53;2567900;30;136663;-40
2022/01/19 02:55:39;;;;;;;;;;;;;;;1.11;100.00;102577.78;2567897;30;138351;-40
2022/01/19 02:58:07;;;;;;;15.30;8.20;;;;;;;1.17;100.00;102568.44;2567746;30;137301;-40
2022/01/19 03:08:59;;;;;;;15.07;8.77;;;;;;;1.28;100.00;102517.44;2567356;30;138198;-40
2022/01/19 03:11:27;;;;;;;13.70;8.30;;;;;;;1.23;100.00;102524.13;2567906;30;137408;-40
2022/01/19 03:13:56;;;;;;;13.88;8.98;;;;;;;1.21;100.00;102521.53;2567541;30;136764;-40
2022/01/19 03:16:24;;;;;;;14.45;8.93;;;;;;;1.13;100.00;102523.91;2566193;30;139683;-41
2022/01/19 03:18:52;;;;;;;13.88;8.55;;;;;;;1.09;100.00;102530.47;2567607;30;139101;-40
2022/01/19 03:21:20;;;;;;;;;;;;;;;1.08;100.00;102537.66;2567679;30;138813;-40
2022/01/19 03:23:48;;;;;;;14.50;9.20;;;;;;;1.08;100.00;102532.28;2567612;30;139522;-40
2022/01/19 03:26:16;;;;;;;;;;;;;;;1.04;100.00;102527.22;2567533;30;139610;-40
2022/01/19 03:29:14;;;;;;;13.25;8.82;;;;;;;1.02;100.00;102511.22;2566491;30;136985;-40
2022/01/19 03:31:42;;;;;;;14.52;8.77;;;;;;;1.03;100.00;102507.56;2566854;30;138178;-40
2022/01/19 03:34:12;;;;;;;14.00;8.95;;;;;;;0.98;100.00;102499.81;2566936;30;139848;-40
2022/01/19 03:36:42;;;;;;;14.57;9.68;;;;;;;1.15;100.00;102511.22;2567125;30;138265;-40
2022/01/19 03:39:12;;;;;;;13.77;9.23;;;;;;;1.19;100.00;102510.03;2567292;30;137338;-40
2022/01/19 03:41:39;;;;;;;;;;;;;;;1.23;100.00;102498.06;2568500;30;139568;-40
2022/01/19 03:44:09;;;;;;;14.80;9.18;;;;;;;1.34;100.00;102478.47;2566165;30;138928;-41
2022/01/19 03:46:46;;;;;;;18.38;9.63;;;;;;;1.38;100.00;102484.50;2565715;30;138743;-40
2022/01/19 03:49:23;;;;;;;16.85;10.00;;;;;;;1.47;100.00;102478.44;2564685;30;139445;-40
2022/01/19 03:51:58;;;;;;;16.45;10.23;;;;;;;1.57;100.00;102478.63;2565139;30;137351;-40
2022/01/19 03:54:29;;;;;;;16.52;9.95;;;;;;;1.61;100.00;102481.97;2566220;30;137762;-40
2022/01/19 03:56:57;;;;;;;16.52;10.57;;;;;;;1.74;100.00;102484.63;2567054;30;138195;-40
2022/01/19 03:59:25;;;;;;;17.45;10.40;;;;;;;1.79;100.00;102485.13;2566794;30;139231;-40
2022/01/19 04:01:54;;;;;;;16.25;10.10;;;;;;;1.86;100.00;102489.97;2564063;30;138285;-40
2022/01/19 04:07:34;;;;;;;18.05;10.10;;;;;;;1.95;100.00;102491.06;2565170;30;140414;-40
2022/01/19 04:10:03;;;;;;;;;;;;;;;2.01;100.00;102487.94;2566385;30;139119;-40
2022/01/19 04:12:54;;;;;;;24.38;11.07;;;;;;;1.97;100.00;102494.50;2566613;30;138668;-40
2022/01/19 04:15:23;;;;;;;25.42;12.20;;;;;;;1.95;100.00;102488.38;2564796;30;137649;-40
2022/01/19 04:17:54;;;;;;;19.73;10.52;;;;;;;1.96;100.00;102492.78;2569091;30;138865;-40
2022/01/19 04:20:25;;;;;;;24.55;11.00;;;;;;;1.96;100.00;102490.09;2568441;30;139039;-40
2022/01/19 04:22:57;;;;;;;26.58;11.98;;;;;;;1.95;100.00;102503.69;2567959;30;139317;-40
2022/01/19 04:25:25;;;;;;;22.70;10.60;;;;;;;1.90;100.00;102500.50;2568498;30;138130;-40
2022/01/19 04:27:53;;;;;;;23.92;11.20;;;;;;;1.88;100.00;102497.91;2568335;30;138322;-40
2022/01/19 04:30:26;;;;;;;21.73;10.70;;;;;;;1.90;100.00;102487.03;2565839;30;139565;-40
2022/01/19 04:35:31;;;;;;;24.73;11.38;;;;;;;1.94;100.00;102486.66;2568089;30;139956;-40
2022/01/19 04:47:01;;;;;;;19.77;10.25;;;;;;;1.96;100.00;102484.72;2566207;30;138118;-40
2022/01/19 05:03:56;;;;;;;18.70;9.90;;;;;;;1.89;100.00;102455.72;2567589;30;136783;-40
2022/01/19 05:06:38;;;;;;;17.17;9.68;;;;;;;1.88;100.00;102443.22;2567664;30;137255;-41
2022/01/19 05:09:21;;;;;;;16.25;9.45;;;;;;;1.90;100.00;102438.59;2568956;30;138884;-41
2022/01/19 05:14:36;;;;;;;20.27;10.45;;;;;;;2.01;100.00;102427.84;2568003;30;137730;-40
2022/01/19 05:17:04;;;;;;;17.95;10.48;;;;;;;2.01;100.00;102422.47;2567169;30;139236;-40
2022/01/19 05:19:33;;;;;;;16.95;10.45;;;;;;;2.00;100.00;102415.34;2566440;30;139543;-40
2022/01/19 05:22:01;;;;;;;;;;;;;;;2.00;100.00;102415.34;2565951;30;139655;-41
2022/01/19 05:24:51;;;;;;;15.43;9.70;;;;;;;2.00;100.00;102418.06;2565989;30;137577;-40
2022/01/19 05:27:45;;;;;;;15.10;9.20;;;;;;;2.02;100.00;102416.09;2565720;30;137167;-40
2022/01/19 05:30:14;;;;;;;14.48;9.70;;;;;;;1.99;100.00;102414.53;2567396;30;137743;-40
2022/01/19 05:32:42;;;;;;;17.42;10.45;;;;;;;2.01;100.00;102406.31;2567799;30;140009;-40
2022/01/19 05:35:10;;;;;;;;;;;;;;;2.01;100.00;102406.31;2566894;30;138934;-40
2022/01/19 05:37:57;;;;;;;17.38;9.27;;;;;;;2.05;100.00;102397.00;2568362;30;136868;-40
2022/01/19 05:40:54;;;;;;;15.27;9.13;;;;;;;2.09;100.00;102398.50;2563896;30;137254;-40
2022/01/19 05:43:22;;;;;;;15.90;9.38;;;;;;;2.10;100.00;102391.28;2568440;30;137221;-40
2022/01/19 05:45:51;;;;;;;16.50;9.63;;;;;;;2.06;100.00;102385.25;2568578;30;138048;-41
2022/01/19 05:48:21;;;;;;;14.35;9.07;;;;;;;2.08;100.00;102394.09;2568353;30;140543;-40
2022/01/19 05:50:53;;;;;;;16.17;8.88;;;;;;;2.08;100.00;102383.31;2566261;30;140048;-41
2022/01/19 05:53:26;;;;;;;16.17;9.85;;;;;;;2.08;100.00;102379.78;2567538;30;140499;-40
2022/01/19 05:55:54;;;;;;;17.70;9.52;;;;;;;2.10;100.00;102377.81;2567437;30;138931;-40
2022/01/19 05:58:23;;;;;;;15.23;8.63;;;;;;;2.10;100.00;102373.28;2569103;30;137639;-40
2022/01/19 06:00:56;;;;;;;15.65;9.00;;;;;;;2.06;100.00;102382.56;2567802;30;138526;-40
2022/01/19 06:03:24;;;;;;;15.68;8.13;;;;;;;2.07;100.00;102373.53;2567935;30;139585;-41
2022/01/19 06:06:24;;;;;;;;;;;;;;;2.10;100.00;102362.50;2567875;30;137783;-41
2022/01/19 06:09:32;;;;;;;15.57;7.97;;;;;;;2.09;100.00;102366.19;2568062;30;139616;-40
2022/01/19 06:12:04;;;;;;;16.13;9.00;;;;;;;2.11;100.00;102352.59;2568346;30;139417;-40
2022/01/19 06:14:34;;;;;;;13.77;7.35;;;;;;;2.07;100.00;102345.75;2567856;30;139498;-40
2022/01/19 06:17:04;;;;;;;16.77;7.97;;;;;;;2.05;100.00;102337.78;2567634;30;139537;-40
2022/01/19 06:19:33;;;;;;;18.00;8.68;;;;;;;2.05;100.00;102347.72;2566983;30;138227;-40
2022/01/19 06:22:01;;;;;;;13.90;8.07;;;;;;;1.99;100.00;102344.53;2565473;30;139143;-41
2022/01/19 06:24:29;;;;;;;15.68;7.88;;;;;;;2.02;100.00;102348.78;2566349;30;138498;-40
2022/01/19 06:26:57;;;;;;;;;;;;;;;2.01;100.00;102352.47;2568267;30;138354;-40
2022/01/19 06:29:26;;;;;;;14.93;7.93;;;;;;;1.99;100.00;102343.66;2565291;30;138744;-40
2022/01/19 06:31:54;;;;;;;13.23;7.90;;;;;;;1.99;100.00;102351.72;2566976;30;137666;-40
2022/01/19 06:34:23;;;;;;;15.25;7.95;;;;;;;2.07;100.00;102354.66;2565219;30;138300;-40
2022/01/19 06:37:14;;;;;;;17.00;8.25;;;;;;;2.04;100.00;102359.47;2564585;30;137003;-40
2022/01/19 06:39:51;;;;;;;17.98;8.77;;;;;;;2.05;100.00;102355.78;2567520;30;138084;-40
2022/01/19 06:42:19;;;;;;;15.32;8.02;;;;;;;2.00;100.00;102357.00;2566227;30;138984;-40
2022/01/19 06:44:47;;;;;;;16.45;8.57;;;;;;;2.00;100.00;102350.75;2567412;30;138249;-40
2022/01/19 06:47:15;;;;;;;;;;;;;;;2.03;100.00;102355.88;2567776;30;137436;-41
2022/01/19 06:49:43;;;;;;;15.38;7.40;;;;;;;2.03;100.00;102355.06;2567936;30;138711;-40
2022/01/19 06:52:13;;;;;;;13.48;8.35;;;;;;;1.98;100.00;102352.69;2568124;30;138785;-40
2022/01/19 06:54:41;;;;;;;14.90;8.65;;;;;;;1.95;100.00;102350.25;2566532;30;139096;-40
2022/01/19 06:57:09;;;;;;;15.93;8.50;;;;;;;1.96;100.00;102351.97;2567594;30;140124;-40
2022/01/19 06:59:38;;;;;;;16.67;8.48;;;;;;;1.92;100.00;102356.72;2567943;30;139752;-38
2022/01/19 07:02:29;;;;;;;13.75;8.13;;;;;;;1.90;100.00;102355.13;2564524;30;137875;-36
2022/01/19 07:05:01;;;;;;;17.33;8.02;;;;;;;1.94;100.00;102356.59;2567681;30;138339;-36
2022/01/19 07:07:57;;;;;;;16.58;8.50;;;;;;;1.92;100.00;102347.78;2566893;30;136923;-36
2022/01/19 07:10:31;;;;;;;15.80;9.18;;;;;;;1.90;100.00;102350.59;2567069;30;139900;-35
2022/01/19 07:13:01;;;;;;;15.93;8.77;;;;;;;1.97;100.00;102343.75;2569472;30;139785;-36
2022/01/19 07:15:29;;;;;;;14.82;8.57;;;;;;;1.95;100.00;102347.56;2567343;30;139779;-36
2022/01/19 07:17:57;;;;;;;14.80;9.15;;;;;;;1.96;100.00;102341.19;2566623;30;138290;-36
2022/01/19 07:20:25;;;;;;;15.40;8.73;;;;;;;1.97;100.00;102342.91;2567256;30;139175;-35
2022/01/19 07:22:56;;;;;;;15.45;8.50;;;;;;;1.98;100.00;102328.47;2568324;30;137719;-36
2022/01/19 07:25:24;;;;;;;19.15;9.10;;;;;;;2.01;100.00;102328.22;2567309;30;140987;-36
2022/01/19 07:27:53;;;;;;;15.00;8.63;;;;;;;2.02;100.00;102321.88;2566808;30;138393;-36
2022/01/19 07:30:22;;;;;;;15.88;9.23;;;;;;;1.85;100.00;102294.41;2565693;30;140120;-36
2022/01/19 07:32:51;;;;;;;17.73;8.95;;;;;;;1.94;100.00;102313.53;2568956;30;137414;-36
2022/01/19 07:35:20;;;;;;;15.77;9.13;;;;;;;1.93;100.00;102309.13;2567306;30;139869;-36
2022/01/19 07:37:52;;;;;;;16.13;9.30;;;;;;;1.95;100.00;102301.78;2567446;30;139166;-36
2022/01/19 07:40:21;;;;;;;15.20;8.98;;;;;;;1.93;100.00;102301.06;2567651;30;138275;-35
2022/01/19 07:42:50;;;;;;;15.90;9.65;;;;;;;1.94;100.00;102298.22;2567577;30;138453;-36
2022/01/19 07:45:36;;;;;;;16.38;9.48;;;;;;;1.95;100.00;102291.03;2568131;30;136912;-36
2022/01/19 07:48:30;;;;;;;14.32;8.85;;;;;;;1.95;100.00;102286.47;2565455;30;137322;-36
2022/01/19 07:51:27;;;;;;;16.10;9.40;;;;;;;1.98;100.00;102288.09;2566258;30;138837;-36
2022/01/19 07:54:13;;;;;;;16.50;9.90;;;;;;;1.98;100.00;102282.69;2568521;30;136905;-36
2022/01/19 07:57:00;;;;;;;19.17;9.73;;;;;;;1.98;100.00;102280.84;2567742;30;137061;-36
2022/01/19 07:59:48;;;;;;;18.02;10.57;;;;;;;1.99;100.00;102281.72;2568497;30;137228;-36
2022/01/19 08:02:17;;;;;;;17.50;10.07;;;;;;;2.04;100.00;102276.84;2568667;30;139603;-36
2022/01/19 08:05:04;;;;;;;18.17;10.27;;;;;;;2.05;100.00;102278.53;2568018;30;136905;-36
2022/01/19 08:07:34;;;;;;;17.50;10.38;;;;;;;2.10;100.00;102265.56;2567927;30;136939;-36
2022/01/19 08:10:07;;;;;;;18.30;10.30;;;;;;;2.06;100.00;102268.66;2568836;30;138870;-36
2022/01/19 08:12:36;;;;;;;16.02;9.63;;;;;;;2.06;100.00;102269.50;2569007;30;137582;-36
2022/01/19 08:15:05;;;;;;;19.15;10.20;;;;;;;2.11;100.00;102261.06;2569022;30;137243;-36
2022/01/19 08:17:35;;;;;;;17.10;10.10;;;;;;;2.13;100.00;102268.06;2566859;30;138389;-36
2022/01/19 08:20:04;;;;;;;15.77;9.18;;;;;;;2.17;100.00;102255.19;2567340;30;139539;-36
2022/01/19 08:22:32;;;;;;;16.48;9.68;;;;;;;2.22;100.00;102260.22;2569852;30;140275;-36
2022/01/19 08:25:18;;;;;;;16.40;9.45;;;;;;;2.24;100.00;102260.94;2568810;30;138682;-36
2022/01/19 08:27:47;;;;;;;15.70;10.07;;;;;;;2.25;100.00;102268.03;2568783;30;139049;-36
2022/01/19 08:30:17;;;;;;;17.38;10.02;;;;;;;2.31;100.00;102256.78;2567323;30;137537;-36
2022/01/19 08:32:46;;;;;;;16.38;9.48;;;;;;;2.36;100.00;102254.56;2568166;30;140515;-36
2022/01/19 08:35:38;;;;;;;14.77;8.88;;;;;;;2.29;100.00;102265.00;2568997;30;136751;-36
2022/01/19 08:38:32;;;;;;;16.50;8.93;;;;;;;2.36;100.00;102269.88;2568525;30;137264;-36
2022/01/19 08:41:23;;;;;;;16.88;9.50;;;;;;;2.30;100.00;102277.47;2568994;30;136997;-36
2022/01/19 08:43:52;;;;;;;14.60;9.95;;;;;;;2.31;100.00;102283.69;2568328;30;140731;-36
2022/01/19 08:46:20;;;;;;;;;;;;;;;2.28;100.00;102276.75;2568131;30;139795;-36
2022/01/19 08:49:17;;;;;;;15.05;9.15;;;;;;;2.37;100.00;102272.44;2565324;30;137496;-36
2022/01/19 08:52:06;;;;;;;14.70;9.18;;;;;;;2.35;100.00;102269.00;2569315;30;136981;-36
2022/01/19 08:54:40;;;;;;;16.63;10.10;;;;;;;2.36;100.00;102281.50;2568275;30;139975;-36
2022/01/19 08:57:11;;;;;;;16.33;9.75;;;;;;;2.37;100.00;102267.03;2568047;30;137756;-36
2022/01/19 08:59:39;;;;;;;16.75;9.95;;;;;;;2.39;100.00;102261.56;2567538;30;137132;-36
2022/01/19 09:02:07;;;;;;;15.45;9.25;;;;;;;2.37;100.00;102261.66;2566959;30;137688;-36
2022/01/19 09:04:36;;;;;;;15.45;9.57;;;;;;;2.39;100.00;102250.78;2569032;30;138176;-36
2022/01/19 09:07:04;;;;;;;17.23;9.98;;;;;;;2.44;100.00;102240.47;2567522;30;137201;-36
2022/01/19 09:09:32;;;;;;;15.57;9.77;;;;;;;2.47;100.00;102239.38;2569038;30;138387;-36
2022/01/19 09:12:00;;;;;;;15.43;9.65;;;;;;;2.47;100.00;102234.00;2567693;30;137718;-36
2022/01/19 09:14:30;;;;;;;;;;;;;;;2.49;100.00;102226.66;2568582;30;137468;-36
2022/01/19 09:16:58;;;;;;;14.48;9.63;;;;;;;2.49;100.00;102227.47;2567367;30;137070;-36
2022/01/19 09:19:27;;;;;;;18.35;9.68;;;;;;;2.46;100.00;102226.91;2567618;30;137379;-36
2022/01/19 09:21:55;;;;;;;16.55;10.20;;;;;;;2.51;100.00;102227.38;2568184;30;137666;-36
2022/01/19 09:24:23;;;;;;;17.08;10.13;;;;;;;2.55;100.00;102224.31;2567924;30;138852;-36
2022/01/19 09:26:56;;;;;;;18.85;10.32;;;;;;;2.57;100.00;102213.38;2568067;30;137689;-36
2022/01/19 09:29:24;;;;;;;15.52;9.85;;;;;;;2.59;100.00;102219.50;2569105;30;138021;-36
2022/01/19 09:31:54;;;;;;;;;;;;;;;2.63;100.00;102220.97;2567603;30;138076;-36
2022/01/19 09:34:23;;;;;;;16.33;9.23;;;;;;;2.57;100.00;102213.38;2568368;30;138612;-35
2022/01/19 09:36:51;;;;;;;17.25;10.27;;;;;;;2.56;100.00;102206.28;2567861;30;137118;-35
2022/01/19 09:39:22;;;;;;;15.63;10.02;;;;;;;2.63;100.00;102202.09;2568244;30;139224;-36
2022/01/19 09:41:51;;;;;;;16.58;10.07;;;;;;;2.58;100.00;102205.19;2566563;30;137728;-36
2022/01/19 09:44:23;;;;;;;17.80;9.80;;;;;;;2.58;100.00;102194.41;2569014;30;136940;-36
2022/01/19 09:46:51;;;;;;;16.35;10.20;;;;;;;2.58;100.00;102188.16;2566991;30;137732;-36
2022/01/19 09:49:21;;;;;;;15.52;10.07;;;;;;;2.61;100.00;102187.06;2567683;30;138492;-36
2022/01/19 09:51:51;;;;;;;17.25;10.68;;;;;;;2.62;100.00;102184.22;2567345;30;138638;-36
2022/01/19 09:54:23;;;;;;;15.05;9.60;;;;;;;2.61;100.00;102184.38;2566927;30;138310;-36
2022/01/19 09:56:52;;;;;;;18.83;10.65;;;;;;;2.65;100.00;102181.31;2564956;30;140448;-36
2022/01/19 09:59:21;;;;;;;16.23;10.07;;;;;;;2.66;100.00;102174.94;2565586;30;137586;-36
2022/01/19 10:01:54;;;;;;;15.65;10.10;;;;;;;2.68;100.00;102174.78;2568142;30;137894;-36
2022/01/19 10:04:28;;;;;;;14.93;9.23;;;;;;;2.67;100.00;102176.63;2568551;30;138231;-36
2022/01/19 10:07:17;;;;;;;15.85;9.52;;;;;;;2.70;100.00;102165.59;2569107;30;136985;-36
2022/01/19 10:09:51;;;;;;;;;;;;;;;2.72;100.00;102166.31;2568469;30;138295;-36
2022/01/19 10:18:19;;;;;;;15.88;10.07;;;;;;;2.88;100.00;102138.94;2567890;30;138244;-36
2022/01/19 10:21:02;;;;;;;15.68;10.02;;;;;;;2.95;100.00;102136.59;2567018;30;139124;-36
2022/01/19 10:23:39;;;;;;;15.30;9.65;;;;;;;3.00;100.00;102133.47;2569290;30;136954;-36
2022/01/19 10:26:12;;;;;;;16.88;9.18;;;;;;;3.03;100.00;102127.81;2568505;30;139048;-36
2022/01/19 10:29:07;;;;;;;16.90;10.57;;;;;;;3.06;100.00;102127.59;2567056;30;137278;-36
2022/01/19 10:31:37;;;;;;;16.13;10.02;;;;;;;3.08;99.82;102120.22;2566284;30;139371;-36
2022/01/19 10:34:22;;;;;;;15.15;9.20;;;;;;;3.11;100.00;102116.38;2567722;30;136762;-36
2022/01/19 10:36:56;;;;;;;16.42;10.20;;;;;;;3.16;99.25;102108.75;2568362;30;137360;-36
2022/01/19 10:39:37;;;;;;;17.05;10.43;;;;;;;3.17;99.56;102107.75;2568812;30;137002;-36
2022/01/19 10:42:11;;;;;;;17.02;9.98;;;;;;;3.26;98.71;102101.59;2566989;30;138015;-36
2022/01/19 10:44:45;;;;;;;17.08;9.77;;;;;;;3.29;99.69;102106.72;2567266;30;137361;-36
2022/01/19 10:47:49;;;;;;;18.05;9.68;;;;;;;3.28;99.00;102096.91;2569466;30;138314;-36
2022/01/19 10:50:30;;;;;;;15.45;10.10;;;;;;;3.32;97.21;102105.59;2567533;30;137731;-36
2022/01/19 10:53:04;;;;;;;16.58;9.75;;;;;;;3.33;96.62;102098.34;2568309;30;138995;-36
2022/01/19 10:55:40;;;;;;;16.25;10.25;;;;;;;3.43;97.31;102093.84;2567158;30;136966;-36
2022/01/19 10:58:14;;;;;;;18.17;10.05;;;;;;;3.42;96.71;102095.72;2567315;30;137159;-36
2022/01/19 11:00:50;;;;;;;21.15;10.35;;;;;;;3.45;96.44;102086.50;2564504;30;138078;-36
2022/01/19 11:03:20;;;;;;;18.05;10.07;;;;;;;3.48;96.84;102091.63;2566031;30;138884;-36
2022/01/19 11:05:59;;;;;;;15.95;10.07;;;;;;;3.57;96.15;102085.41;2568686;30;137456;-36
2022/01/19 11:08:30;;;;;;;16.65;10.68;;;;;;;3.54;95.60;102091.09;2567692;30;138440;-36
2022/01/19 11:11:01;;;;;;;16.73;10.43;;;;;;;3.51;94.58;102083.25;2567814;30;137778;-36
2022/01/19 11:13:39;;;;;;;15.25;9.55;;;;;;;3.52;96.21;102068.78;2568449;30;138272;-36
2022/01/19 11:16:07;;;;;;;18.63;10.27;;;;;;;3.50;96.55;102064.50;2567102;30;137348;-36
2022/01/19 11:18:39;;;;;;;;;;;;;;;3.53;96.05;102070.50;2567836;30;138354;-36
2022/01/19 11:21:12;;;;;;;16.98;9.85;;;;;;;3.59;95.41;102064.53;2568302;30;137659;-36
2022/01/19 11:24:00;;;;;;;16.38;9.95;;;;;;;3.57;95.05;102060.25;2567435;30;138439;-36
2022/01/19 11:26:31;;;;;;;15.30;9.95;;;;;;;3.53;94.30;102056.13;2569339;30;138598;-36
2022/01/19 11:29:21;;;;;;;15.55;10.20;;;;;;;3.50;95.19;102051.00;2568972;30;139266;-36
2022/01/19 11:31:51;;;;;;;15.93;10.00;;;;;;;3.49;95.02;102041.19;2568049;30;137696;-36
2022/01/19 11:34:38;;;;;;;16.77;10.07;;;;;;;3.52;96.10;102033.69;2569214;30;139189;-36
2022/01/19 11:37:06;;;;;;;19.00;10.40;;;;;;;3.52;96.62;102030.13;2567670;30;137686;-36
2022/01/19 11:39:34;;;;;;;16.33;10.57;;;;;;;3.54;97.67;102023.63;2568940;30;138232;-36
2022/01/19 11:42:04;;;;;;;;;;;;;;;3.53;97.56;102012.94;2567536;30;137229;-36
2022/01/19 11:44:32;;;;;;;17.10;9.88;;;;;;;3.51;97.35;102013.09;2569312;30;138185;-38
2022/01/19 11:47:25;;;;;;;16.35;10.88;;;;;;;3.48;97.18;102002.59;2567754;30;138396;-38
2022/01/19 11:49:58;;;;;;;16.95;9.82;;;;;;;3.49;97.09;102007.00;2568982;30;138417;-36
2022/01/19 11:52:34;;;;;;;16.60;10.32;;;;;;;3.46;96.11;101999.16;2568331;30;137633;-36
2022/01/19 11:55:16;;;;;;;16.60;10.52;;;;;;;3.48;96.53;101989.09;2568798;30;138186;-36
2022/01/19 11:57:47;;;;;;;15.35;9.88;;;;;;;3.48;96.40;101981.00;2567562;30;136736;-36
2022/01/19 12:00:19;;;;;;;17.33;10.68;;;;;;;3.48;95.96;101986.41;2567553;30;138171;-36
2022/01/19 12:02:56;;;;;;;15.82;10.15;;;;;;;3.49;96.44;101985.41;2568583;30;137509;-36
2022/01/19 12:05:45;;;;;;;17.15;10.52;;;;;;;3.49;95.84;101985.41;2569032;30;139056;-36
2022/01/19 12:08:25;;;;;;;15.90;11.07;;;;;;;3.47;96.07;101984.69;2567906;30;137635;-36
2022/01/19 12:11:18;;;;;;;16.45;11.00;;;;;;;3.44;96.18;101974.13;2568983;30;137461;-36
2022/01/19 12:19:10;;;;;;;17.90;10.73;;;;;;;3.42;97.57;101950.00;2568872;30;137545;-36
2022/01/19 12:21:38;;;;;;;20.17;10.88;;;;;;;3.40;98.03;101951.13;2569468;30;139029;-36
2022/01/19 12:24:34;;;;;;;19.83;11.93;;;;;;;3.44;96.75;101947.16;2568205;30;137772;-36
2022/01/19 12:27:09;;;;;;;19.45;11.05;;;;;;;3.40;96.80;101945.72;2567268;30;138340;-36
2022/01/19 12:29:39;;;;;;;17.83;10.60;;;;;;;3.38;98.08;101943.19;2568368;30;137604;-34
2022/01/19 12:32:20;;;;;;;16.63;11.32;;;;;;;3.46;97.31;101929.00;2568473;30;137259;-36
2022/01/19 12:34:51;;;;;;;16.63;10.80;;;;;;;3.47;97.61;101936.13;2569492;30;136769;-36
2022/01/19 12:37:33;;;;;;;17.77;11.07;;;;;;;3.48;97.46;101927.03;2568086;30;138085;-36
2022/01/19 12:40:06;;;;;;;17.55;11.32;;;;;;;3.56;97.72;101934.41;2568997;30;138477;-36
2022/01/19 12:42:52;;;;;;;18.95;11.10;;;;;;;3.51;96.86;101931.28;2567685;30;138157;-36
2022/01/19 12:45:22;;;;;;;22.23;11.40;;;;;;;3.49;97.38;101927.88;2569443;30;136967;-36
2022/01/19 12:47:52;;;;;;;16.33;10.60;;;;;;;3.49;97.43;101930.56;2565473;30;138440;-36
2022/01/19 12:50:20;;;;;;;21.42;11.10;;;;;;;3.51;96.81;101918.66;2568933;30;137587;-36
2022/01/19 12:52:54;;;;;;;18.10;11.00;;;;;;;3.51;97.41;101918.66;2568771;30;138509;-36
2022/01/19 12:55:28;;;;;;;20.30;11.63;;;;;;;3.55;96.33;101911.97;2569244;30;137546;-36
2022/01/19 12:57:57;;;;;;;18.70;12.15;;;;;;;3.59;96.64;101897.22;2568613;30;137965;-36
2022/01/19 13:01:30;;;;;;;17.88;11.00;;;;;;;3.57;96.57;101885.69;2565063;30;137666;-40
2022/01/19 13:03:58;;;;;;;19.52;11.25;;;;;;;3.59;97.42;101882.88;2568422;30;137432;-40
2022/01/19 13:06:27;;;;;;;;;;;;;;;3.57;95.57;101884.84;2568810;30;138312;-40
2022/01/19 13:09:05;;;;;;;19.87;11.23;;;;;;;3.55;96.11;101881.44;2567927;30;138293;-40
2022/01/19 13:11:50;;;;;;;21.48;11.55;;;;;;;3.53;95.69;101880.72;2568368;30;137760;-40
2022/01/19 13:14:18;;;;;;;19.27;11.32;;;;;;;3.51;96.46;101888.09;2567960;30;138337;-40
2022/01/19 13:16:49;;;;;;;22.00;12.07;;;;;;;3.48;96.70;101877.59;2568296;30;138632;-40